Heleylah, Iran
Current Conditions -  °F | °C
As of 3:50 AM on Thursday 18 Dec 2014 (Local Time) from OIBB Reporting Station
Haze Haze  
Wind Chill: 59°   Ceiling: Unl
Heat Index: 59°   Visibility: 1.2mi
Dew Point: 55°   Wind: 5mph
Humidity: 88%   Direction: 60°ENE
Pressure: 30.18"   Gusts: NA
Location:  28.84°N, 50.89°E
Report Text: OIBB 180050Z 06004KT 2000 BR SCT020 15/13 Q1022 A3018
Loading
Personal Weather Stations






























Interactive Weather Map New forecast layout! Learn more

10-Day Weather Forecast

Advertisements
Track Severe Weather on mobile